Time;durP1;ratioP1;P1;durP2;ratioP2;P2;SDS_P1;SDS_P2;PMS_P1;PMS_P2;Temp;Humidity;BMP_temperature;BMP_pressure;BME280_temperature;BME280_humidity;BME280_pressure;Samples;Min_cycle;Max_cycle;Signal;HPM_P1;HPM_P2
2022/06/26 00:01:39;;;;;;;6.68;6.00;;;;;;;;;;5019409;28;20245;-76
2022/06/26 00:04:07;;;;;;;7.03;6.43;;;;;;;;;;5020244;28;20270;-76
2022/06/26 00:06:35;;;;;;;6.50;6.00;;;;;;;;;;5018131;28;20220;-76
2022/06/26 00:09:04;;;;;;;8.13;5.70;;;;;;;;;;5023187;28;20220;-75
2022/06/26 00:11:31;;;;;;;6.53;6.03;;;;;;;;;;5039888;28;20299;-76
2022/06/26 00:13:57;;;;;;;6.28;5.68;;;;;;;;;;5018547;28;20294;-76
2022/06/26 00:16:25;;;;;;;7.85;5.60;;;;;;;;;;5017191;28;20220;-76
2022/06/26 00:18:56;;;;;;;6.25;5.75;;;;;;;;;;5017004;28;20215;-77
2022/06/26 00:21:24;;;;;;;6.32;5.82;;;;;;;;;;5030962;28;20223;-77
2022/06/26 00:23:51;;;;;;;6.38;5.65;;;;;;;;;;5017617;28;20702;-77
2022/06/26 00:26:19;;;;;;;6.40;5.80;;;;;;;;;;5010825;28;20236;-76
2022/06/26 00:28:47;;;;;;;6.40;5.90;;;;;;;;;;5035643;28;20221;-77
2022/06/26 00:31:12;;;;;;;6.35;5.85;;;;;;;;;;5009251;28;20221;-77
2022/06/26 00:33:40;;;;;;;6.78;6.18;;;;;;;;;;5009436;28;20218;-77
2022/06/26 00:36:06;;;;;;;6.20;5.70;;;;;;;;;;5021520;28;20223;-76
2022/06/26 00:38:32;;;;;;;7.05;6.35;;;;;;;;;;5026157;28;20213;-76
2022/06/26 00:40:58;;;;;;;6.45;5.95;;;;;;;;;;5022840;28;20229;-76
2022/06/26 00:43:29;;;;;;;6.20;5.80;;;;;;;;;;5008361;28;20222;-76
2022/06/26 00:45:54;;;;;;;7.30;6.57;;;;;;;;;;5011072;28;20705;-76
2022/06/26 00:48:20;;;;;;;6.55;6.05;;;;;;;;;;5006009;28;20216;-76
2022/06/26 00:50:51;;;;;;;6.97;6.35;;;;;;;;;;5005317;28;20725;-76
2022/06/26 00:53:19;;;;;;;6.68;6.18;;;;;;;;;;5008967;28;20239;-76
2022/06/26 00:55:47;;;;;;;6.63;6.03;;;;;;;;;;5013371;28;20231;-76
2022/06/26 00:58:15;;;;;;;6.68;6.10;;;;;;;;;;5019090;28;20228;-76
2022/06/26 01:00:41;;;;;;;7.20;6.50;;;;;;;;;;5021510;28;20235;-76
2022/06/26 01:03:09;;;;;;;6.60;5.97;;;;;;;;;;5033485;28;20256;-76
2022/06/26 01:05:35;;;;;;;7.03;6.30;;;;;;;;;;5019102;28;20225;-76
2022/06/26 01:08:02;;;;;;;7.07;6.32;;;;;;;;;;5024007;28;20216;-76
2022/06/26 01:10:28;;;;;;;7.60;6.22;;;;;;;;;;5010311;28;20649;-76
2022/06/26 01:12:55;;;;;;;7.50;6.45;;;;;;;;;;5011112;28;20355;-76
2022/06/26 01:15:23;;;;;;;6.93;6.43;;;;;;;;;;4995200;28;20221;-76
2022/06/26 01:17:51;;;;;;;7.70;7.10;;;;;;;;;;4989547;28;20274;-76
2022/06/26 01:20:17;;;;;;;7.75;6.63;;;;;;;;;;5013756;28;20228;-76
2022/06/26 01:22:45;;;;;;;7.63;6.93;;;;;;;;;;5008487;28;20274;-75
2022/06/26 01:25:10;;;;;;;7.18;6.68;;;;;;;;;;5007617;28;20215;-76
2022/06/26 01:27:42;;;;;;;7.50;6.95;;;;;;;;;;5009428;28;20259;-76
2022/06/26 01:30:11;;;;;;;7.20;6.60;;;;;;;;;;5008680;28;20216;-77
2022/06/26 01:32:36;;;;;;;7.82;7.13;;;;;;;;;;5006307;28;20220;-76
2022/06/26 01:35:07;;;;;;;8.32;7.65;;;;;;;;;;5008680;28;20244;-76
2022/06/26 01:37:37;;;;;;;7.47;6.88;;;;;;;;;;5021831;28;20299;-76
2022/06/26 01:40:03;;;;;;;7.50;6.90;;;;;;;;;;5015239;28;20228;-76
2022/06/26 01:42:33;;;;;;;7.38;6.72;;;;;;;;;;5022432;28;20224;-76
2022/06/26 01:44:58;;;;;;;8.13;7.43;;;;;;;;;;5006327;28;20721;-76
2022/06/26 01:47:25;;;;;;;7.22;6.65;;;;;;;;;;5005916;28;20697;-78
2022/06/26 01:49:55;;;;;;;8.25;7.55;;;;;;;;;;5008079;28;20230;-76
2022/06/26 01:52:20;;;;;;;7.45;6.82;;;;;;;;;;5007457;28;20236;-77
2022/06/26 01:54:50;;;;;;;7.55;6.90;;;;;;;;;;4992139;28;20275;-76
2022/06/26 01:57:16;;;;;;;7.50;6.88;;;;;;;;;;5008413;28;20650;-76
2022/06/26 01:59:45;;;;;;;8.48;7.30;;;;;;;;;;5033635;28;20535;-77
2022/06/26 02:02:16;;;;;;;7.60;7.00;;;;;;;;;;5007381;28;20224;-77
2022/06/26 02:04:41;;;;;;;8.25;7.65;;;;;;;;;;5001627;28;20226;-76
2022/06/26 02:07:09;;;;;;;8.43;7.82;;;;;;;;;;4990753;28;20213;-77
2022/06/26 02:15:09;;;;;;;8.95;8.23;;;;;;;;;;4991767;28;20862;-77
2022/06/26 02:17:37;;;;;;;8.68;7.85;;;;;;;;;;5015965;28;20303;-76
2022/06/26 02:20:03;;;;;;;8.43;7.72;;;;;;;;;;5017763;28;20252;-76
2022/06/26 02:22:29;;;;;;;8.23;7.53;;;;;;;;;;5015333;28;20710;-77
2022/06/26 02:24:54;;;;;;;8.50;7.75;;;;;;;;;;5007795;28;20219;-77
2022/06/26 02:27:25;;;;;;;7.95;7.25;;;;;;;;;;5008825;28;25532;-77
2022/06/26 02:29:53;;;;;;;8.48;7.78;;;;;;;;;;5007285;28;20220;-76
2022/06/26 02:32:24;;;;;;;8.73;8.02;;;;;;;;;;5008473;28;20230;-76
2022/06/26 02:34:50;;;;;;;8.40;7.70;;;;;;;;;;5031735;28;20208;-76
2022/06/26 02:37:15;;;;;;;8.27;7.68;;;;;;;;;;5006784;28;20216;-76
2022/06/26 02:39:47;;;;;;;8.27;7.68;;;;;;;;;;5007905;28;20250;-77
2022/06/26 02:42:12;;;;;;;8.63;7.97;;;;;;;;;;5031304;28;20229;-77
2022/06/26 02:44:40;;;;;;;9.25;8.55;;;;;;;;;;4993679;28;20702;-76
2022/06/26 02:47:06;;;;;;;9.27;8.57;;;;;;;;;;4996046;28;20221;-77
2022/06/26 02:49:33;;;;;;;9.43;8.73;;;;;;;;;;5015208;28;20223;-76
2022/06/26 02:52:02;;;;;;;9.63;8.73;;;;;;;;;;5018192;28;20212;-77
2022/06/26 02:54:28;;;;;;;9.05;8.35;;;;;;;;;;5001661;28;20382;-76
2022/06/26 02:56:57;;;;;;;9.95;9.13;;;;;;;;;;5032302;28;20643;-76
2022/06/26 02:59:25;;;;;;;9.73;8.95;;;;;;;;;;5007561;28;20228;-77
2022/06/26 03:01:52;;;;;;;9.40;8.70;;;;;;;;;;4989693;28;20327;-77
2022/06/26 03:04:37;;;;;;;9.13;8.43;;;;;;;;;;5008545;28;20232;-77
2022/06/26 03:07:02;;;;;;;10.57;9.73;;;;;;;;;;5003356;28;20270;-77
2022/06/26 03:09:28;;;;;;;10.27;9.48;;;;;;;;;;5007247;28;20303;-77
2022/06/26 03:11:53;;;;;;;9.98;9.18;;;;;;;;;;5002813;28;20224;-77
2022/06/26 03:14:21;;;;;;;9.88;9.18;;;;;;;;;;5024133;28;20216;-76
2022/06/26 03:16:49;;;;;;;9.82;9.02;;;;;;;;;;5016447;28;20223;-77
2022/06/26 03:19:16;;;;;;;9.88;9.13;;;;;;;;;;5006913;28;20223;-77
2022/06/26 03:21:46;;;;;;;9.93;8.95;;;;;;;;;;5006626;28;20224;-77
2022/06/26 03:24:18;;;;;;;9.77;8.93;;;;;;;;;;5015536;28;20215;-76
2022/06/26 03:26:48;;;;;;;9.68;8.90;;;;;;;;;;5008114;28;20284;-77
2022/06/26 03:29:14;;;;;;;9.90;9.20;;;;;;;;;;5008165;28;20227;-76
2022/06/26 03:31:43;;;;;;;9.75;8.95;;;;;;;;;;5006697;28;20232;-77
2022/06/26 03:34:12;;;;;;;10.88;10.07;;;;;;;;;;5008253;28;20232;-77
2022/06/26 03:36:43;;;;;;;12.05;11.07;;;;;;;;;;5007774;28;20772;-76
2022/06/26 03:39:11;;;;;;;11.07;10.07;;;;;;;;;;5007283;28;20817;-77
2022/06/26 03:41:40;;;;;;;10.57;9.77;;;;;;;;;;5000982;28;20228;-77
2022/06/26 03:44:06;;;;;;;11.02;9.95;;;;;;;;;;5019877;28;20225;-76
2022/06/26 03:46:34;;;;;;;11.02;9.88;;;;;;;;;;5011408;28;20228;-77
2022/06/26 03:49:02;;;;;;;10.35;9.55;;;;;;;;;;5021692;28;20252;-78
2022/06/26 03:51:34;;;;;;;10.18;9.30;;;;;;;;;;5018603;28;20231;-77
2022/06/26 03:54:04;;;;;;;9.48;8.77;;;;;;;;;;5011175;28;20269;-76
2022/06/26 03:56:37;;;;;;;10.02;9.25;;;;;;;;;;5012947;28;20231;-78
2022/06/26 03:59:05;;;;;;;10.02;9.02;;;;;;;;;;5000779;28;20220;-76
2022/06/26 04:01:34;;;;;;;10.40;9.60;;;;;;;;;;5011419;28;20224;-77
2022/06/26 04:04:04;;;;;;;10.63;9.55;;;;;;;;;;5008556;28;20223;-76
2022/06/26 04:06:32;;;;;;;9.05;8.40;;;;;;;;;;5020807;28;20231;-76
2022/06/26 04:09:04;;;;;;;9.45;8.75;;;;;;;;;;5010259;28;20223;-77
2022/06/26 04:11:30;;;;;;;9.48;8.77;;;;;;;;;;5009485;28;20213;-76
2022/06/26 04:13:58;;;;;;;10.15;9.35;;;;;;;;;;5009217;28;20228;-77
2022/06/26 04:16:25;;;;;;;9.65;8.88;;;;;;;;;;5006672;28;20224;-76
2022/06/26 04:18:52;;;;;;;9.77;8.98;;;;;;;;;;5011119;28;20251;-78
2022/06/26 04:21:20;;;;;;;9.43;8.73;;;;;;;;;;4998942;28;20243;-77
2022/06/26 04:23:47;;;;;;;9.13;8.32;;;;;;;;;;5014524;28;20223;-78
2022/06/26 04:26:21;;;;;;;8.77;8.07;;;;;;;;;;5010637;28;20223;-77
2022/06/26 04:28:51;;;;;;;9.52;8.60;;;;;;;;;;5010680;28;20235;-77
2022/06/26 04:31:17;;;;;;;8.82;8.13;;;;;;;;;;5010870;28;20227;-77
2022/06/26 04:33:48;;;;;;;8.75;8.05;;;;;;;;;;5011515;28;20208;-77
2022/06/26 04:36:13;;;;;;;8.55;7.85;;;;;;;;;;5022961;28;20292;-77
2022/06/26 04:38:43;;;;;;;8.82;8.13;;;;;;;;;;5022592;28;20302;-78
2022/06/26 04:41:34;;;;;;;8.13;7.47;;;;;;;;;;5021842;28;20232;-77
2022/06/26 04:44:07;;;;;;;7.90;7.20;;;;;;;;;;5024404;28;20313;-77
2022/06/26 04:46:33;;;;;;;7.40;6.85;;;;;;;;;;5010986;28;20220;-77
2022/06/26 04:49:04;;;;;;;8.07;7.38;;;;;;;;;;5017319;28;20213;-77
2022/06/26 04:51:35;;;;;;;7.28;6.75;;;;;;;;;;5009177;28;20246;-77
2022/06/26 04:54:07;;;;;;;6.90;6.40;;;;;;;;;;4990933;28;20716;-77
2022/06/26 04:56:38;;;;;;;7.05;6.53;;;;;;;;;;5010279;28;20351;-78
2022/06/26 04:59:04;;;;;;;6.18;5.78;;;;;;;;;;5006179;28;20745;-77
2022/06/26 05:01:29;;;;;;;7.25;6.65;;;;;;;;;;5006134;28;20231;-77
2022/06/26 05:04:09;;;;;;;6.20;5.70;;;;;;;;;;5011265;28;20219;-77
2022/06/26 05:06:45;;;;;;;6.10;5.63;;;;;;;;;;5033373;28;20231;-76
2022/06/26 05:09:18;;;;;;;6.40;5.90;;;;;;;;;;5009283;28;20234;-76
2022/06/26 05:11:44;;;;;;;5.78;5.28;;;;;;;;;;5009155;28;20216;-77
2022/06/26 05:14:10;;;;;;;5.90;5.50;;;;;;;;;;5007751;28;20208;-77
2022/06/26 05:17:05;;;;;;;5.88;5.20;;;;;;;;;;5017548;28;20252;-75
2022/06/26 05:19:35;;;;;;;5.55;5.15;;;;;;;;;;4999967;28;20232;-77
2022/06/26 05:22:03;;;;;;;6.07;5.30;;;;;;;;;;5017341;28;20638;-76
2022/06/26 05:24:33;;;;;;;8.02;5.45;;;;;;;;;;5010686;28;20291;-77
2022/06/26 05:27:01;;;;;;;6.47;5.25;;;;;;;;;;5021375;28;20248;-76
2022/06/26 05:29:28;;;;;;;5.70;5.15;;;;;;;;;;5017304;28;20722;-77
2022/06/26 05:31:58;;;;;;;4.68;4.35;;;;;;;;;;5009628;28;20209;-77
2022/06/26 05:34:28;;;;;;;6.15;4.75;;;;;;;;;;5004959;28;20215;-77
2022/06/26 05:36:53;;;;;;;5.05;4.65;;;;;;;;;;4996886;28;20216;-77
2022/06/26 05:39:22;;;;;;;4.50;4.20;;;;;;;;;;5018913;28;20216;-77
2022/06/26 05:41:50;;;;;;;4.95;4.07;;;;;;;;;;5002478;28;20729;-77
2022/06/26 05:44:17;;;;;;;4.45;4.05;;;;;;;;;;5013723;28;20239;-77
2022/06/26 05:46:51;;;;;;;4.50;4.10;;;;;;;;;;5030505;28;20217;-76
2022/06/26 05:49:38;;;;;;;5.75;4.18;;;;;;;;;;5013404;28;20230;-76
2022/06/26 05:52:35;;;;;;;5.50;4.20;;;;;;;;;;5021503;28;20274;-76
2022/06/26 05:55:33;;;;;;;4.45;4.15;;;;;;;;;;5030613;28;20224;-77
2022/06/26 05:58:25;;;;;;;4.63;4.22;;;;;;;;;;5020568;28;20220;-77
2022/06/26 06:01:13;;;;;;;6.82;3.92;;;;;;;;;;5034197;28;20250;-77
2022/06/26 06:03:39;;;;;;;3.72;3.30;;;;;;;;;;5022593;28;20216;-76
2022/06/26 06:06:08;;;;;;;3.70;3.40;;;;;;;;;;5008481;28;20219;-77
2022/06/26 06:08:34;;;;;;;3.95;3.55;;;;;;;;;;5022109;28;20966;-77
2022/06/26 06:11:01;;;;;;;3.30;3.10;;;;;;;;;;5014539;28;20232;-77
2022/06/26 06:13:32;;;;;;;5.45;3.20;;;;;;;;;;5008269;28;20215;-76
2022/06/26 06:15:57;;;;;;;3.38;3.08;;;;;;;;;;5004312;28;20721;-76
2022/06/26 06:18:25;;;;;;;3.88;2.90;;;;;;;;;;5018291;28;20510;-76
2022/06/26 06:20:55;;;;;;;3.30;3.10;;;;;;;;;;5006871;28;20232;-77
2022/06/26 06:23:23;;;;;;;3.50;3.03;;;;;;;;;;5018657;28;20702;-77
2022/06/26 06:25:51;;;;;;;3.08;2.88;;;;;;;;;;5017826;28;20254;-76
2022/06/26 06:28:18;;;;;;;3.15;2.83;;;;;;;;;;5006888;28;20224;-76
2022/06/26 06:30:44;;;;;;;3.08;2.88;;;;;;;;;;5008401;28;20220;-76
2022/06/26 06:33:13;;;;;;;3.05;2.85;;;;;;;;;;5024596;28;21086;-77
2022/06/26 06:35:51;;;;;;;3.10;2.90;;;;;;;;;;5009834;28;20598;-77
2022/06/26 06:38:18;;;;;;;4.43;3.17;;;;;;;;;;5017844;28;20217;-76
2022/06/26 06:40:50;;;;;;;3.05;2.85;;;;;;;;;;5022964;28;20286;-77
2022/06/26 06:43:24;;;;;;;2.78;2.58;;;;;;;;;;5004576;28;20221;-76
2022/06/26 06:46:08;;;;;;;3.20;2.38;;;;;;;;;;5016221;28;20235;-77
2022/06/26 06:48:41;;;;;;;3.15;2.08;;;;;;;;;;5031865;28;20234;-78
2022/06/26 06:51:26;;;;;;;2.30;2.10;;;;;;;;;;5016371;28;20713;-77
2022/06/26 06:53:52;;;;;;;2.85;2.00;;;;;;;;;;4993628;28;20224;-77
2022/06/26 06:56:21;;;;;;;1.90;1.80;;;;;;;;;;5012852;28;20216;-77
2022/06/26 06:58:47;;;;;;;1.92;1.60;;;;;;;;;;5009258;28;20795;-77
2022/06/26 07:01:12;;;;;;;1.95;1.80;;;;;;;;;;5013930;28;20232;-76
2022/06/26 07:03:39;;;;;;;2.58;1.70;;;;;;;;;;5017934;28;20728;-78
2022/06/26 07:06:05;;;;;;;2.28;1.90;;;;;;;;;;5006786;28;20232;-77
2022/06/26 07:08:32;;;;;;;3.05;1.92;;;;;;;;;;5005762;28;20445;-77
2022/06/26 07:11:01;;;;;;;2.05;1.80;;;;;;;;;;5032724;28;20212;-75
2022/06/26 07:13:26;;;;;;;1.90;1.80;;;;;;;;;;4990918;28;20221;-78
2022/06/26 07:15:52;;;;;;;1.80;1.70;;;;;;;;;;4996137;28;20234;-74
2022/06/26 07:18:24;;;;;;;2.17;1.90;;;;;;;;;;5008703;28;20227;-74
2022/06/26 07:20:53;;;;;;;2.00;1.90;;;;;;;;;;5038909;28;20224;-76
2022/06/26 07:23:29;;;;;;;4.18;2.00;;;;;;;;;;5007259;28;20216;-79
2022/06/26 07:26:07;;;;;;;2.30;1.80;;;;;;;;;;4990120;28;20233;-76
2022/06/26 07:28:36;;;;;;;2.60;1.88;;;;;;;;;;5030167;28;20292;-77
2022/06/26 07:31:04;;;;;;;2.20;2.00;;;;;;;;;;5024646;28;20670;-75
2022/06/26 07:36:21;;;;;;;2.97;2.03;;;;;;;;;;5034374;28;20306;-75
2022/06/26 07:38:47;;;;;;;2.13;1.70;;;;;;;;;;5024946;28;20231;-76
2022/06/26 07:41:13;;;;;;;1.77;1.60;;;;;;;;;;4991154;28;20228;-75
2022/06/26 07:43:39;;;;;;;2.92;1.75;;;;;;;;;;5014795;28;20705;-75
2022/06/26 07:46:19;;;;;;;1.63;1.52;;;;;;;;;;5001636;28;20305;-76
2022/06/26 07:48:49;;;;;;;3.00;1.80;;;;;;;;;;5014144;28;20244;-75
2022/06/26 07:51:17;;;;;;;4.32;1.63;;;;;;;;;;4975798;28;20621;-76
2022/06/26 07:53:46;;;;;;;2.38;2.17;;;;;;;;;;5019625;28;20220;-75
2022/06/26 07:56:15;;;;;;;2.65;1.60;;;;;;;;;;5009845;28;20219;-75
2022/06/26 07:58:40;;;;;;;1.92;1.83;;;;;;;;;;5024804;28;20289;-79
2022/06/26 08:01:06;;;;;;;1.90;1.80;;;;;;;;;;5012853;28;20789;-76
2022/06/26 08:03:31;;;;;;;2.83;1.85;;;;;;;;;;5012338;28;20300;-76
2022/06/26 08:05:59;;;;;;;1.70;1.60;;;;;;;;;;5019011;28;20278;-76
2022/06/26 08:08:27;;;;;;;1.88;1.77;;;;;;;;;;4986098;28;20894;-76
2022/06/26 08:10:53;;;;;;;2.47;2.00;;;;;;;;;;5028356;28;20316;-80
2022/06/26 08:13:20;;;;;;;2.25;2.08;;;;;;;;;;5025397;28;20313;-78
2022/06/26 08:15:46;;;;;;;2.40;2.20;;;;;;;;;;5019684;28;20221;-77
2022/06/26 08:18:12;;;;;;;2.80;2.00;;;;;;;;;;5009471;28;20221;-77
2022/06/26 08:20:37;;;;;;;3.75;2.10;;;;;;;;;;5010429;28;20224;-74
2022/06/26 08:23:03;;;;;;;2.20;2.00;;;;;;;;;;5009947;28;20220;-76
2022/06/26 08:25:28;;;;;;;3.35;2.40;;;;;;;;;;4989426;28;20228;-76
2022/06/26 08:27:54;;;;;;;2.47;2.28;;;;;;;;;;5023509;28;20255;-76
2022/06/26 08:30:22;;;;;;;3.15;2.10;;;;;;;;;;5038571;28;20220;-76
2022/06/26 08:32:50;;;;;;;2.60;2.40;;;;;;;;;;4993273;28;20228;-77
2022/06/26 08:35:15;;;;;;;5.78;2.40;;;;;;;;;;5031195;28;20216;-78
2022/06/26 08:37:41;;;;;;;4.00;2.58;;;;;;;;;;5017215;28;20223;-77
2022/06/26 08:40:08;;;;;;;2.47;2.35;;;;;;;;;;5026197;28;20282;-76
2022/06/26 08:42:34;;;;;;;2.50;2.30;;;;;;;;;;5008848;28;20232;-77
2022/06/26 08:45:05;;;;;;;2.75;2.50;;;;;;;;;;5037359;28;20225;-77
2022/06/26 08:47:34;;;;;;;5.32;2.58;;;;;;;;;;5035956;28;20311;-76
2022/06/26 08:50:00;;;;;;;3.13;2.40;;;;;;;;;;5020005;28;20287;-76
2022/06/26 08:52:26;;;;;;;2.47;2.30;;;;;;;;;;4991078;28;20598;-75
2022/06/26 08:54:51;;;;;;;2.00;1.90;;;;;;;;;;5016474;28;20225;-74
2022/06/26 08:57:17;;;;;;;2.75;2.13;;;;;;;;;;4973942;28;20266;-75
2022/06/26 08:59:42;;;;;;;2.83;2.63;;;;;;;;;;4998720;28;20610;-76
2022/06/26 09:02:08;;;;;;;2.50;2.30;;;;;;;;;;5004948;28;20250;-76
2022/06/26 09:04:36;;;;;;;2.22;1.80;;;;;;;;;;5006296;28;20220;-75
2022/06/26 09:07:04;;;;;;;2.50;2.30;;;;;;;;;;5011735;28;20231;-76
2022/06/26 09:09:30;;;;;;;2.60;2.40;;;;;;;;;;5019442;28;20234;-77
2022/06/26 09:11:58;;;;;;;2.13;2.03;;;;;;;;;;5008306;28;20302;-77
2022/06/26 09:14:29;;;;;;;3.40;2.22;;;;;;;;;;5018556;28;20710;-78
2022/06/26 09:16:56;;;;;;;3.97;1.80;;;;;;;;;;5011652;28;20213;-80
2022/06/26 09:19:29;;;;;;;2.15;1.95;;;;;;;;;;5008979;28;20224;-77
2022/06/26 09:22:16;;;;;;;2.50;2.30;;;;;;;;;;4996970;28;20228;-79
2022/06/26 09:24:53;;;;;;;2.28;2.08;;;;;;;;;;5022599;28;20595;-79
2022/06/26 09:27:22;;;;;;;2.50;2.08;;;;;;;;;;5021748;28;20720;-79
2022/06/26 09:29:51;;;;;;;2.05;1.70;;;;;;;;;;5037200;28;20227;-80
2022/06/26 09:32:22;;;;;;;1.80;1.70;;;;;;;;;;4990365;28;20285;-81
2022/06/26 09:34:52;;;;;;;1.95;1.85;;;;;;;;;;5023136;28;20224;-79
2022/06/26 09:37:21;;;;;;;2.65;1.92;;;;;;;;;;5007278;28;20220;-80
2022/06/26 09:39:47;;;;;;;3.10;2.10;;;;;;;;;;5007861;28;20235;-77
2022/06/26 09:42:19;;;;;;;2.15;1.95;;;;;;;;;;5025256;28;20224;-78
2022/06/26 09:44:45;;;;;;;2.20;2.00;;;;;;;;;;5018400;28;20617;-73
2022/06/26 09:47:32;;;;;;;2.72;1.98;;;;;;;;;;5019162;28;20602;-76
2022/06/26 09:50:00;;;;;;;2.20;2.00;;;;;;;;;;5010480;28;20224;-79
2022/06/26 09:52:30;;;;;;;2.10;1.90;;;;;;;;;;5006717;28;20224;-79
2022/06/26 09:54:56;;;;;;;2.78;2.03;;;;;;;;;;5005043;28;20240;-79
2022/06/26 09:57:22;;;;;;;2.17;1.98;;;;;;;;;;5017632;28;20227;-78
2022/06/26 09:59:52;;;;;;;2.28;2.08;;;;;;;;;;5006374;28;20221;-82
2022/06/26 10:07:51;;;;;;;3.53;1.85;;;;;;;;;;5037788;28;20348;-78
2022/06/26 10:10:20;;;;;;;2.38;1.70;;;;;;;;;;5024575;28;20317;-81
2022/06/26 10:12:52;;;;;;;2.05;1.90;;;;;;;;;;5024006;28;20228;-82
2022/06/26 10:15:18;;;;;;;2.30;2.00;;;;;;;;;;5039884;28;20224;-80
2022/06/26 10:17:58;;;;;;;2.92;1.90;;;;;;;;;;5023973;28;20220;-81
2022/06/26 10:20:23;;;;;;;2.60;2.10;;;;;;;;;;5025418;28;20234;-81
2022/06/26 10:22:49;;;;;;;3.15;2.35;;;;;;;;;;5043510;28;20216;-80
2022/06/26 10:25:27;;;;;;;2.40;1.95;;;;;;;;;;5004784;28;20227;-80
2022/06/26 10:27:53;;;;;;;2.70;1.92;;;;;;;;;;5041862;28;20224;-84
2022/06/26 10:30:22;;;;;;;2.20;1.83;;;;;;;;;;5038229;28;20258;-84
2022/06/26 10:33:07;;;;;;;2.00;1.80;;;;;;;;;;5027216;28;20220;-86
2022/06/26 10:35:45;;;;;;;2.22;1.80;;;;;;;;;;5042393;28;20240;-81
2022/06/26 10:38:24;;;;;;;1.98;1.88;;;;;;;;;;5014275;28;20224;-79
2022/06/26 10:43:43;;;;;;;1.85;1.65;;;;;;;;;;5019172;28;20301;-80
2022/06/26 10:46:09;;;;;;;2.67;1.63;;;;;;;;;;5013292;28;20701;-79
2022/06/26 10:48:35;;;;;;;1.48;1.30;;;;;;;;;;5012940;28;20216;-78
2022/06/26 10:51:01;;;;;;;1.33;1.30;;;;;;;;;;5008442;28;20214;-79
2022/06/26 10:53:30;;;;;;;3.60;1.40;;;;;;;;;;5044071;28;20246;-74
2022/06/26 10:55:59;;;;;;;1.60;1.50;;;;;;;;;;5026602;28;20228;-74
2022/06/26 10:58:29;;;;;;;2.55;1.80;;;;;;;;;;5021343;28;20296;-74
2022/06/26 11:01:05;;;;;;;2.63;2.05;;;;;;;;;;5026942;28;20250;-81
2022/06/26 11:03:33;;;;;;;2.45;2.25;;;;;;;;;;4999571;28;20228;-83
2022/06/26 11:06:01;;;;;;;4.13;2.42;;;;;;;;;;5025880;28;20255;-79
2022/06/26 11:08:30;;;;;;;2.22;2.03;;;;;;;;;;5038885;28;20235;-79
2022/06/26 11:11:15;;;;;;;1.80;1.70;;;;;;;;;;5027104;28;20303;-76
2022/06/26 11:13:52;;;;;;;2.17;2.00;;;;;;;;;;4989375;28;20216;-77
2022/06/26 11:16:17;;;;;;;2.10;1.90;;;;;;;;;;5020724;28;20575;-78
2022/06/26 11:18:48;;;;;;;2.15;2.00;;;;;;;;;;5041032;28;20342;-83
2022/06/26 11:21:16;;;;;;;3.35;2.00;;;;;;;;;;5021879;28;20311;-77
2022/06/26 11:23:42;;;;;;;2.15;1.90;;;;;;;;;;5014825;28;20722;-83
2022/06/26 11:26:11;;;;;;;1.90;1.80;;;;;;;;;;5026525;28;20713;-79
2022/06/26 11:28:43;;;;;;;2.45;1.80;;;;;;;;;;5030758;28;20217;-82
2022/06/26 11:31:18;;;;;;;2.78;1.80;;;;;;;;;;5021556;28;20345;-80
2022/06/26 11:33:46;;;;;;;2.92;2.30;;;;;;;;;;5045991;28;20247;-81
2022/06/26 11:36:15;;;;;;;3.30;2.00;;;;;;;;;;5038896;28;20220;-77
2022/06/26 11:38:54;;;;;;;3.00;2.50;;;;;;;;;;5038551;28;20700;-79
2022/06/26 11:41:23;;;;;;;2.92;2.50;;;;;;;;;;5026089;28;20226;-79
2022/06/26 11:43:52;;;;;;;3.00;2.47;;;;;;;;;;5020238;28;20446;-78
2022/06/26 11:46:18;;;;;;;3.53;2.67;;;;;;;;;;5021464;28;20232;-77
2022/06/26 11:48:46;;;;;;;2.50;2.30;;;;;;;;;;5007152;28;20236;-81
2022/06/26 11:51:13;;;;;;;3.10;2.55;;;;;;;;;;5043881;28;20220;-78
2022/06/26 11:53:42;;;;;;;3.88;2.60;;;;;;;;;;5025605;28;20651;-76
2022/06/26 11:56:08;;;;;;;2.92;2.50;;;;;;;;;;4997444;28;20240;-78
2022/06/26 11:58:36;;;;;;;4.32;2.60;;;;;;;;;;5018522;28;20656;-78
2022/06/26 12:01:15;;;;;;;2.85;2.53;;;;;;;;;;5025054;28;20221;-76
2022/06/26 12:03:47;;;;;;;3.28;2.50;;;;;;;;;;5009446;28;20264;-81
2022/06/26 12:06:37;;;;;;;4.10;2.60;;;;;;;;;;5041243;28;20769;-76
2022/06/26 12:09:16;;;;;;;2.95;2.30;;;;;;;;;;5025159;28;20612;-78
2022/06/26 12:11:42;;;;;;;3.03;2.67;;;;;;;;;;5025081;28;20231;-77
2022/06/26 12:14:15;;;;;;;3.25;2.13;;;;;;;;;;5007175;28;21608;-79
2022/06/26 12:16:51;;;;;;;4.18;2.40;;;;;;;;;;5007294;28;20229;-81
2022/06/26 12:19:19;;;;;;;2.70;2.40;;;;;;;;;;5005909;28;20225;-78
2022/06/26 12:21:49;;;;;;;2.80;2.60;;;;;;;;;;5007991;28;20316;-79
2022/06/26 12:24:27;;;;;;;4.35;2.55;;;;;;;;;;5037359;28;20240;-82
2022/06/26 12:26:58;;;;;;;3.05;2.78;;;;;;;;;;5025740;28;20262;-81
2022/06/26 12:29:27;;;;;;;2.33;2.13;;;;;;;;;;5016985;28;20231;-78
2022/06/26 12:31:52;;;;;;;4.05;2.75;;;;;;;;;;5033551;28;20224;-79
2022/06/26 12:34:18;;;;;;;2.55;2.35;;;;;;;;;;5014456;28;20299;-80
2022/06/26 12:36:44;;;;;;;2.92;2.63;;;;;;;;;;5021720;28;20625;-78
2022/06/26 12:39:11;;;;;;;3.75;3.45;;;;;;;;;;5013019;28;20224;-79
2022/06/26 12:41:41;;;;;;;3.25;2.75;;;;;;;;;;5038267;28;20347;-80
2022/06/26 12:44:12;;;;;;;2.72;2.53;;;;;;;;;;5011557;28;20282;-77
2022/06/26 12:46:37;;;;;;;4.43;2.30;;;;;;;;;;5043830;28;20277;-79
2022/06/26 12:49:06;;;;;;;2.47;2.28;;;;;;;;;;5009401;28;20227;-85
2022/06/26 12:51:32;;;;;;;2.75;2.50;;;;;;;;;;5053568;28;20694;-82
2022/06/26 12:53:58;;;;;;;2.72;2.53;;;;;;;;;;5045516;28;20216;-82
2022/06/26 12:56:26;;;;;;;3.55;2.40;;;;;;;;;;5019646;28;20216;-83
2022/06/26 12:58:56;;;;;;;3.75;2.92;;;;;;;;;;5034847;28;20216;-82
2022/06/26 13:01:26;;;;;;;2.90;2.70;;;;;;;;;;5025728;28;20236;-77
2022/06/26 13:03:52;;;;;;;3.00;2.50;;;;;;;;;;5010112;28;20227;-81
2022/06/26 13:06:22;;;;;;;3.17;2.85;;;;;;;;;;5022526;28;20229;-80
2022/06/26 13:08:50;;;;;;;4.18;2.70;;;;;;;;;;5025295;28;20208;-80
2022/06/26 13:11:27;;;;;;;2.88;2.67;;;;;;;;;;4999138;28;20686;-80
2022/06/26 13:13:57;;;;;;;8.00;2.75;;;;;;;;;;5022438;28;20264;-77
2022/06/26 13:16:23;;;;;;;2.60;2.30;;;;;;;;;;5023672;28;20224;-81
2022/06/26 13:18:51;;;;;;;3.08;2.78;;;;;;;;;;5038227;28;20243;-82
2022/06/26 13:21:16;;;;;;;3.50;2.95;;;;;;;;;;5009581;28;20627;-83
2022/06/26 13:23:44;;;;;;;3.15;2.60;;;;;;;;;;4996078;28;20224;-78
2022/06/26 13:26:12;;;;;;;3.50;3.20;;;;;;;;;;5011223;28;20216;-79
2022/06/26 13:28:43;;;;;;;2.88;2.67;;;;;;;;;;5037837;28;20216;-85
2022/06/26 13:31:13;;;;;;;3.80;2.85;;;;;;;;;;4994002;28;20221;-79
2022/06/26 13:33:39;;;;;;;2.63;2.42;;;;;;;;;;5029586;28;20216;-82
2022/06/26 13:36:07;;;;;;;2.63;2.42;;;;;;;;;;5026080;28;20261;-79
2022/06/26 13:38:35;;;;;;;3.40;3.20;;;;;;;;;;5038320;28;20224;-78
2022/06/26 13:41:01;;;;;;;3.13;2.83;;;;;;;;;;5024701;28;20224;-83
2022/06/26 13:43:29;;;;;;;4.10;3.00;;;;;;;;;;5022069;28;20263;-81
2022/06/26 13:45:57;;;;;;;2.65;2.42;;;;;;;;;;5041286;28;20232;-80
2022/06/26 13:48:23;;;;;;;2.83;2.60;;;;;;;;;;5036047;28;20228;-83
2022/06/26 13:50:49;;;;;;;2.80;2.60;;;;;;;;;;5026345;28;20250;-83
2022/06/26 13:53:17;;;;;;;2.70;2.50;;;;;;;;;;5017986;28;20227;-85
2022/06/26 13:55:42;;;;;;;3.20;2.90;;;;;;;;;;5048975;28;20291;-83
2022/06/26 13:58:08;;;;;;;4.75;4.35;;;;;;;;;;5046808;28;20310;-80
2022/06/26 14:00:37;;;;;;;6.57;6.07;;;;;;;;;;5021464;28;20305;-78
2022/06/26 14:03:08;;;;;;;5.20;4.72;;;;;;;;;;5032666;28;20232;-79
2022/06/26 14:05:35;;;;;;;5.43;2.80;;;;;;;;;;5044327;28;20254;-80
2022/06/26 14:08:04;;;;;;;3.20;2.88;;;;;;;;;;5032113;28;20714;-80
2022/06/26 14:10:32;;;;;;;6.95;6.30;;;;;;;;;;5017236;28;20278;-79
2022/06/26 14:13:03;;;;;;;3.85;3.55;;;;;;;;;;5018396;28;20216;-79
2022/06/26 14:15:31;;;;;;;5.90;4.72;;;;;;;;;;5017669;28;20255;-79
2022/06/26 14:18:02;;;;;;;5.97;5.38;;;;;;;;;;5034831;28;20231;-79
2022/06/26 14:20:28;;;;;;;3.20;2.90;;;;;;;;;;5005640;28;20224;-79
2022/06/26 14:25:55;;;;;;;5.32;2.70;;;;;;;;;;5026229;28;20228;-78
2022/06/26 14:28:29;;;;;;;2.40;2.22;;;;;;;;;;5028810;28;20239;-79
2022/06/26 14:30:57;;;;;;;2.70;2.50;;;;;;;;;;5030585;28;20283;-83
2022/06/26 14:33:28;;;;;;;2.72;2.53;;;;;;;;;;5015727;28;20232;-79
2022/06/26 14:35:56;;;;;;;2.70;2.40;;;;;;;;;;5034244;28;20235;-79
2022/06/26 14:38:22;;;;;;;3.22;2.67;;;;;;;;;;5029034;28;20220;-76
2022/06/26 14:40:47;;;;;;;3.30;2.33;;;;;;;;;;5019667;28;20216;-80
2022/06/26 14:43:18;;;;;;;2.35;2.15;;;;;;;;;;5006378;28;20220;-79
2022/06/26 14:45:45;;;;;;;2.30;2.10;;;;;;;;;;5044689;28;20454;-80
2022/06/26 14:48:11;;;;;;;3.45;3.03;;;;;;;;;;5014291;28;20594;-79
2022/06/26 14:50:38;;;;;;;4.18;3.78;;;;;;;;;;5011280;28;20223;-79
2022/06/26 14:53:04;;;;;;;9.25;7.28;;;;;;;;;;5010691;28;20766;-81
2022/06/26 14:55:31;;;;;;;3.65;2.75;;;;;;;;;;4968839;28;20208;-78
2022/06/26 14:58:00;;;;;;;2.60;2.40;;;;;;;;;;5011602;28;20239;-82
2022/06/26 15:00:26;;;;;;;2.20;2.00;;;;;;;;;;5024939;28;20247;-82
2022/06/26 15:02:51;;;;;;;2.65;1.90;;;;;;;;;;5020649;28;20248;-80
2022/06/26 15:05:20;;;;;;;2.15;1.90;;;;;;;;;;5024251;28;20232;-79
2022/06/26 15:07:47;;;;;;;2.25;1.90;;;;;;;;;;5014475;28;20228;-79
2022/06/26 15:10:26;;;;;;;2.70;1.90;;;;;;;;;;5018481;28;20227;-78
2022/06/26 15:12:52;;;;;;;2.67;1.70;;;;;;;;;;5014810;28;20595;-79
2022/06/26 15:15:18;;;;;;;2.40;2.20;;;;;;;;;;5029206;28;20674;-78